Sebewaing, MI

1:13 AM EDT on August 02, 2014 (GMT -0400)
Sand Point (KMISANDP1) Elev 598 ft | 43.91 °N, 83.38 °W | Change Station

Current weather conditions updated 3 minutes ago

Clear
Clear
68.3 °F
Feels Like 68.3 °F
N
1.0
Wind Variable Wind from ESE
Gusts 2.0 mph

Today is forecast to be nearly the same temperature as yesterday. Scattered thunderstorms.

Today
High -- | Low -- °F
--% Chance of Precip.
Yesterday
High -- | Low -- °F
Precip. -- in
6:23 AM 8:55 PM
Waxing Crescent, 32% visible
Pressure 30.11 in
Visibility 5.0 miles
Clouds Clear
Dew Point 65 °F
Humidity 89%
Rainfall 0.00 in
Snow Depth Not available.
UV 0.0 out of 12
Pollen 7.30 out of 12
Ozone Good
PM2.5 Moderate
Flu Activity Not available.
METAR KCFS 020455Z AUTO 00000KT 5SM BR CLR 17/17 A3011 RMK AO2 T01680165

More Conditions Fewer Conditions

Pressure 30.11 in
Visibility 5.0 miles
Clouds Clear
Dew Point 65 °F
Humidity 89%
Rainfall 0.00 in
Snow Depth Not available.
UV 0.0 out of 12
Pollen 7.30 out of 12
Ozone Good
PM2.5 Moderate
Flu Activity Not available.
METAR KCFS 020455Z AUTO 00000KT 5SM BR CLR 17/17 A3011 RMK AO2 T01680165

More Conditions Fewer Conditions

10-Day Weather Forecast

Almanac

Astronomy

Aug. 02, 2014 Rise Set
Actual Time 6:23 AM EDT 8:55 PM EDT
Civil Twilight 5:50 AM EDT 9:28 PM EDT
Nautical Twilight 5:10 AM EDT 10:08 PM EDT
Astronomical Twilight 4:23 AM EDT 10:54 PM EDT
Moon 12:58 PM EDT 11:58 PM EDT
Length of Visible Light 15h 37m
Length of Day
14h 31m
Tomorrow will be 2m 20s shorter.
Waxing Crescent, 32% of the Moon is Illuminated
Today
Waxing Crescent
Aug 3
First Quarter
Aug 10
Full
Aug 17
Last Quarter
Aug 25
New

Today's Extremes

State Highs State Lows

Community

WunderPhotos

Upload Photos

1,739,825 photos uploaded!

Nearby

Air Quality

  Air Quality AQ Index Pollutant
Yesterday Moderate
PM2.5
Yesterday Good
OZONE
Current Moderate
PM2.5
Current Good
OZONE
Friday Moderate
PM2.5
Friday Good
OZONE
Saturday Moderate
PM2.5
Saturday Good
OZONE
Sunday Moderate
PM2.5
Sunday Good
OZONE
Monday Moderate
PM2.5
Monday Good
OZONE

Snow Depth

Station Depth Elevation
No new snow has been reported.

Earthquake Activity

City Distance Mag. Time & Date
No recent earthquake activity has been reported nearby.
Minimum magnitude displayed is 2.5.

Coastal Water Temperatures

Place Temperature
Harbor Beach, MI 70.0 °F

Nearby Weather Stations

Station Location Temp. Dew Point Humidity Wind Precip. Elev Updated Type
Sand Point, Sand Point, MI 68.3 °F 65 °F 89% ESE  at  1.0 mph 0.00 in / hr 598 ft 1:10 AM EDT Normal
HADS GRAVELLY SHOAL LIGHTHOUSE , Au Gres, MI 69 °F - - East  at  9 mph 0.00 in / hr 580 ft 12:40 AM EDT MADIS
MesoWest Munger , Munger, MI 63 °F 60 °F 88% North  at  0 mph 0.00 in / hr 563 ft 11:00 PM EDT MADIS
ECUM, Reese, MI 63.1 °F 62 °F 96% NNW  at  1.0 mph 0.00 in / hr 627 ft 10:00 PM EDT Normal

Show More Stations Show Fewer Stations